sensor_id;sensor_type;location;lat;lon;timestamp;P1;durP1;ratioP1;P2;durP2;ratioP2
7879;SDS011;3985;49.366;2.738;2023-04-03T00:00:43;19.25;;;16.75;;
7879;SDS011;3985;49.366;2.738;2023-04-03T00:03:10;23.50;;;19.00;;
7879;SDS011;3985;49.366;2.738;2023-04-03T00:05:37;20.50;;;18.25;;
7879;SDS011;3985;49.366;2.738;2023-04-03T00:08:05;23.00;;;19.75;;
7879;SDS011;3985;49.366;2.738;2023-04-03T00:10:34;13.00;;;13.00;;
7879;SDS011;3985;49.366;2.738;2023-04-03T00:13:02;17.00;;;17.00;;
7879;SDS011;3985;49.366;2.738;2023-04-03T00:15:30;17.75;;;17.25;;
7879;SDS011;3985;49.366;2.738;2023-04-03T00:18:00;18.75;;;13.75;;
7879;SDS011;3985;49.366;2.738;2023-04-03T00:20:27;21.75;;;17.75;;
7879;SDS011;3985;49.366;2.738;2023-04-03T00:22:54;13.75;;;12.75;;
7879;SDS011;3985;49.366;2.738;2023-04-03T00:25:22;13.75;;;13.75;;
7879;SDS011;3985;49.366;2.738;2023-04-03T00:27:49;18.00;;;12.00;;
7879;SDS011;3985;49.366;2.738;2023-04-03T00:30:17;14.25;;;14.25;;
7879;SDS011;3985;49.366;2.738;2023-04-03T00:32:47;14.00;;;14.00;;
7879;SDS011;3985;49.366;2.738;2023-04-03T00:35:16;17.50;;;15.75;;
7879;SDS011;3985;49.366;2.738;2023-04-03T00:37:45;18.25;;;18.25;;
7879;SDS011;3985;49.366;2.738;2023-04-03T00:40:13;18.25;;;14.25;;
7879;SDS011;3985;49.366;2.738;2023-04-03T00:42:42;18.25;;;15.50;;
7879;SDS011;3985;49.366;2.738;2023-04-03T00:48:01;16.50;;;15.25;;
7879;SDS011;3985;49.366;2.738;2023-04-03T00:50:33;12.00;;;12.00;;
7879;SDS011;3985;49.366;2.738;2023-04-03T00:53:02;13.25;;;11.50;;
7879;SDS011;3985;49.366;2.738;2023-04-03T00:55:30;12.75;;;12.75;;
7879;SDS011;3985;49.366;2.738;2023-04-03T00:57:58;14.00;;;12.50;;
7879;SDS011;3985;49.366;2.738;2023-04-03T01:00:27;21.75;;;16.75;;
7879;SDS011;3985;49.366;2.738;2023-04-03T01:02:54;14.00;;;14.00;;
7879;SDS011;3985;49.366;2.738;2023-04-03T01:05:21;12.00;;;12.00;;
7879;SDS011;3985;49.366;2.738;2023-04-03T01:07:56;11.75;;;11.75;;
7879;SDS011;3985;49.366;2.738;2023-04-03T01:10:24;13.25;;;13.00;;
7879;SDS011;3985;49.366;2.738;2023-04-03T01:12:51;11.75;;;11.00;;
7879;SDS011;3985;49.366;2.738;2023-04-03T01:15:19;15.50;;;13.50;;
7879;SDS011;3985;49.366;2.738;2023-04-03T01:17:50;13.25;;;13.25;;
7879;SDS011;3985;49.366;2.738;2023-04-03T01:23:31;15.50;;;13.75;;
7879;SDS011;3985;49.366;2.738;2023-04-03T01:26:07;15.75;;;15.75;;
7879;SDS011;3985;49.366;2.738;2023-04-03T01:28:36;12.50;;;12.50;;
7879;SDS011;3985;49.366;2.738;2023-04-03T01:31:06;21.25;;;18.25;;
7879;SDS011;3985;49.366;2.738;2023-04-03T01:33:41;17.75;;;17.00;;
7879;SDS011;3985;49.366;2.738;2023-04-03T01:36:10;13.00;;;13.00;;
7879;SDS011;3985;49.366;2.738;2023-04-03T01:38:43;17.50;;;17.50;;
7879;SDS011;3985;49.366;2.738;2023-04-03T01:41:10;15.00;;;12.75;;
7879;SDS011;3985;49.366;2.738;2023-04-03T01:43:37;17.00;;;14.75;;
7879;SDS011;3985;49.366;2.738;2023-04-03T01:46:04;14.25;;;10.75;;
7879;SDS011;3985;49.366;2.738;2023-04-03T01:48:32;14.00;;;13.00;;
7879;SDS011;3985;49.366;2.738;2023-04-03T01:51:01;14.50;;;14.50;;
7879;SDS011;3985;49.366;2.738;2023-04-03T01:53:29;14.00;;;14.00;;
7879;SDS011;3985;49.366;2.738;2023-04-03T01:55:56;29.00;;;27.00;;
7879;SDS011;3985;49.366;2.738;2023-04-03T01:58:23;21.50;;;21.25;;
7879;SDS011;3985;49.366;2.738;2023-04-03T02:00:50;14.75;;;14.75;;
7879;SDS011;3985;49.366;2.738;2023-04-03T02:03:18;23.00;;;17.25;;
7879;SDS011;3985;49.366;2.738;2023-04-03T02:05:46;18.00;;;17.00;;
7879;SDS011;3985;49.366;2.738;2023-04-03T02:08:15;20.50;;;17.25;;
7879;SDS011;3985;49.366;2.738;2023-04-03T02:10:43;21.25;;;17.25;;
7879;SDS011;3985;49.366;2.738;2023-04-03T02:13:10;13.00;;;13.00;;
7879;SDS011;3985;49.366;2.738;2023-04-03T02:15:38;20.00;;;18.50;;
7879;SDS011;3985;49.366;2.738;2023-04-03T02:18:05;16.50;;;16.50;;
7879;SDS011;3985;49.366;2.738;2023-04-03T02:20:33;17.25;;;17.25;;
7879;SDS011;3985;49.366;2.738;2023-04-03T02:23:00;17.00;;;17.00;;
7879;SDS011;3985;49.366;2.738;2023-04-03T02:25:31;18.75;;;15.75;;
7879;SDS011;3985;49.366;2.738;2023-04-03T02:27:58;21.50;;;17.00;;
7879;SDS011;3985;49.366;2.738;2023-04-03T02:30:26;19.25;;;19.25;;
7879;SDS011;3985;49.366;2.738;2023-04-03T02:32:53;17.50;;;16.25;;
7879;SDS011;3985;49.366;2.738;2023-04-03T02:35:21;15.50;;;15.50;;
7879;SDS011;3985;49.366;2.738;2023-04-03T02:37:48;23.50;;;21.25;;
7879;SDS011;3985;49.366;2.738;2023-04-03T02:40:16;19.75;;;17.75;;
7879;SDS011;3985;49.366;2.738;2023-04-03T02:42:44;20.50;;;17.25;;
7879;SDS011;3985;49.366;2.738;2023-04-03T02:45:12;20.00;;;16.25;;
7879;SDS011;3985;49.366;2.738;2023-04-03T02:47:39;19.00;;;17.50;;
7879;SDS011;3985;49.366;2.738;2023-04-03T02:50:06;21.00;;;18.50;;
7879;SDS011;3985;49.366;2.738;2023-04-03T02:52:34;18.50;;;17.00;;
7879;SDS011;3985;49.366;2.738;2023-04-03T02:55:01;21.50;;;20.25;;
7879;SDS011;3985;49.366;2.738;2023-04-03T02:57:29;19.75;;;17.25;;
7879;SDS011;3985;49.366;2.738;2023-04-03T02:59:58;22.25;;;22.00;;
7879;SDS011;3985;49.366;2.738;2023-04-03T03:02:25;22.00;;;21.00;;
7879;SDS011;3985;49.366;2.738;2023-04-03T03:04:52;20.50;;;18.50;;
7879;SDS011;3985;49.366;2.738;2023-04-03T03:07:19;20.25;;;18.25;;
7879;SDS011;3985;49.366;2.738;2023-04-03T03:09:47;21.25;;;21.00;;
7879;SDS011;3985;49.366;2.738;2023-04-03T03:12:14;20.25;;;20.25;;
7879;SDS011;3985;49.366;2.738;2023-04-03T03:14:46;25.00;;;21.25;;
7879;SDS011;3985;49.366;2.738;2023-04-03T03:17:15;22.00;;;17.75;;
7879;SDS011;3985;49.366;2.738;2023-04-03T03:19:42;26.00;;;22.00;;
7879;SDS011;3985;49.366;2.738;2023-04-03T03:22:10;19.50;;;17.25;;
7879;SDS011;3985;49.366;2.738;2023-04-03T03:24:38;20.75;;;18.00;;
7879;SDS011;3985;49.366;2.738;2023-04-03T03:27:05;17.50;;;17.25;;
7879;SDS011;3985;49.366;2.738;2023-04-03T03:29:32;13.75;;;11.50;;
7879;SDS011;3985;49.366;2.738;2023-04-03T03:31:59;18.75;;;15.75;;
7879;SDS011;3985;49.366;2.738;2023-04-03T03:34:28;27.25;;;25.25;;
7879;SDS011;3985;49.366;2.738;2023-04-03T03:36:56;28.50;;;20.50;;
7879;SDS011;3985;49.366;2.738;2023-04-03T03:39:23;23.50;;;21.50;;
7879;SDS011;3985;49.366;2.738;2023-04-03T03:41:50;23.25;;;19.75;;
7879;SDS011;3985;49.366;2.738;2023-04-03T03:44:18;25.50;;;22.25;;
7879;SDS011;3985;49.366;2.738;2023-04-03T03:46:45;23.75;;;21.00;;
7879;SDS011;3985;49.366;2.738;2023-04-03T03:49:13;19.50;;;19.25;;
7879;SDS011;3985;49.366;2.738;2023-04-03T03:51:41;23.25;;;19.75;;
7879;SDS011;3985;49.366;2.738;2023-04-03T03:54:12;26.25;;;19.75;;
7879;SDS011;3985;49.366;2.738;2023-04-03T03:56:39;25.75;;;19.75;;
7879;SDS011;3985;49.366;2.738;2023-04-03T03:59:06;23.50;;;21.00;;
7879;SDS011;3985;49.366;2.738;2023-04-03T04:01:34;21.75;;;21.75;;
7879;SDS011;3985;49.366;2.738;2023-04-03T04:04:01;29.25;;;26.00;;
7879;SDS011;3985;49.366;2.738;2023-04-03T04:06:28;26.25;;;26.25;;
7879;SDS011;3985;49.366;2.738;2023-04-03T04:08:57;27.50;;;25.50;;
7879;SDS011;3985;49.366;2.738;2023-04-03T04:11:24;25.50;;;24.50;;
7879;SDS011;3985;49.366;2.738;2023-04-03T04:13:52;31.75;;;24.50;;
7879;SDS011;3985;49.366;2.738;2023-04-03T04:16:20;22.25;;;22.25;;
7879;SDS011;3985;49.366;2.738;2023-04-03T04:18:47;24.75;;;24.75;;
7879;SDS011;3985;49.366;2.738;2023-04-03T04:21:14;23.25;;;23.25;;
7879;SDS011;3985;49.366;2.738;2023-04-03T04:23:41;26.75;;;24.75;;
7879;SDS011;3985;49.366;2.738;2023-04-03T04:26:10;25.75;;;23.50;;
7879;SDS011;3985;49.366;2.738;2023-04-03T04:28:37;24.75;;;23.75;;
7879;SDS011;3985;49.366;2.738;2023-04-03T04:31:05;23.00;;;21.50;;
7879;SDS011;3985;49.366;2.738;2023-04-03T04:33:32;20.75;;;20.75;;
7879;SDS011;3985;49.366;2.738;2023-04-03T04:36:00;29.50;;;26.25;;
7879;SDS011;3985;49.366;2.738;2023-04-03T04:38:28;20.25;;;19.00;;
7879;SDS011;3985;49.366;2.738;2023-04-03T04:40:55;24.00;;;24.00;;
7879;SDS011;3985;49.366;2.738;2023-04-03T04:43:24;26.75;;;24.75;;
7879;SDS011;3985;49.366;2.738;2023-04-03T04:45:59;32.50;;;28.75;;
7879;SDS011;3985;49.366;2.738;2023-04-03T04:48:27;21.75;;;21.75;;
7879;SDS011;3985;49.366;2.738;2023-04-03T04:50:55;28.25;;;25.75;;
7879;SDS011;3985;49.366;2.738;2023-04-03T04:53:22;28.25;;;28.25;;
7879;SDS011;3985;49.366;2.738;2023-04-03T04:55:49;26.00;;;22.50;;
7879;SDS011;3985;49.366;2.738;2023-04-03T04:58:17;25.75;;;23.25;;
7879;SDS011;3985;49.366;2.738;2023-04-03T05:00:46;29.50;;;26.00;;
7879;SDS011;3985;49.366;2.738;2023-04-03T05:03:13;21.25;;;20.25;;
7879;SDS011;3985;49.366;2.738;2023-04-03T05:05:41;26.75;;;24.50;;
7879;SDS011;3985;49.366;2.738;2023-04-03T05:08:08;32.50;;;26.50;;
7879;SDS011;3985;49.366;2.738;2023-04-03T05:10:37;26.00;;;25.50;;
7879;SDS011;3985;49.366;2.738;2023-04-03T05:13:05;35.00;;;31.75;;
7879;SDS011;3985;49.366;2.738;2023-04-03T05:15:33;29.50;;;29.50;;
7879;SDS011;3985;49.366;2.738;2023-04-03T05:18:03;31.00;;;30.25;;
7879;SDS011;3985;49.366;2.738;2023-04-03T05:20:31;33.25;;;33.00;;
7879;SDS011;3985;49.366;2.738;2023-04-03T05:22:59;25.75;;;24.00;;
7879;SDS011;3985;49.366;2.738;2023-04-03T05:25:26;28.25;;;24.50;;
7879;SDS011;3985;49.366;2.738;2023-04-03T05:27:53;28.00;;;24.75;;
7879;SDS011;3985;49.366;2.738;2023-04-03T05:30:21;34.00;;;30.75;;
7879;SDS011;3985;49.366;2.738;2023-04-03T05:32:48;34.75;;;29.75;;
7879;SDS011;3985;49.366;2.738;2023-04-03T05:35:17;26.25;;;22.50;;
7879;SDS011;3985;49.366;2.738;2023-04-03T05:37:44;29.75;;;27.50;;
7879;SDS011;3985;49.366;2.738;2023-04-03T05:40:12;30.00;;;27.75;;
7879;SDS011;3985;49.366;2.738;2023-04-03T05:42:39;30.25;;;25.00;;
7879;SDS011;3985;49.366;2.738;2023-04-03T05:45:07;32.75;;;29.00;;
7879;SDS011;3985;49.366;2.738;2023-04-03T05:47:35;31.50;;;27.75;;
7879;SDS011;3985;49.366;2.738;2023-04-03T05:50:02;38.00;;;31.00;;
7879;SDS011;3985;49.366;2.738;2023-04-03T05:52:33;30.75;;;28.50;;
7879;SDS011;3985;49.366;2.738;2023-04-03T05:55:01;36.00;;;35.00;;
7879;SDS011;3985;49.366;2.738;2023-04-03T05:57:29;37.00;;;35.25;;
7879;SDS011;3985;49.366;2.738;2023-04-03T05:59:56;32.00;;;28.25;;
7879;SDS011;3985;49.366;2.738;2023-04-03T06:02:24;34.25;;;31.75;;
7879;SDS011;3985;49.366;2.738;2023-04-03T06:04:52;41.75;;;32.50;;
7879;SDS011;3985;49.366;2.738;2023-04-03T06:07:20;25.50;;;19.50;;
7879;SDS011;3985;49.366;2.738;2023-04-03T06:09:50;34.25;;;31.75;;
7879;SDS011;3985;49.366;2.738;2023-04-03T06:12:18;31.50;;;27.50;;
7879;SDS011;3985;49.366;2.738;2023-04-03T06:14:46;30.25;;;27.75;;
7879;SDS011;3985;49.366;2.738;2023-04-03T06:17:13;40.25;;;36.75;;
7879;SDS011;3985;49.366;2.738;2023-04-03T06:19:40;38.25;;;28.75;;
7879;SDS011;3985;49.366;2.738;2023-04-03T06:22:08;37.25;;;32.00;;
7879;SDS011;3985;49.366;2.738;2023-04-03T06:24:36;39.75;;;38.25;;
7879;SDS011;3985;49.366;2.738;2023-04-03T06:27:05;46.75;;;37.50;;
7879;SDS011;3985;49.366;2.738;2023-04-03T06:29:33;44.50;;;38.50;;
7879;SDS011;3985;49.366;2.738;2023-04-03T06:32:00;47.25;;;39.75;;
7879;SDS011;3985;49.366;2.738;2023-04-03T06:34:27;45.00;;;36.75;;
7879;SDS011;3985;49.366;2.738;2023-04-03T06:36:54;45.75;;;39.75;;
7879;SDS011;3985;49.366;2.738;2023-04-03T06:39:22;39.00;;;36.00;;
7879;SDS011;3985;49.366;2.738;2023-04-03T06:41:49;38.25;;;35.25;;
7879;SDS011;3985;49.366;2.738;2023-04-03T06:44:18;32.00;;;32.00;;
7879;SDS011;3985;49.366;2.738;2023-04-03T06:46:45;29.50;;;25.75;;
7879;SDS011;3985;49.366;2.738;2023-04-03T06:49:13;24.25;;;23.00;;
7879;SDS011;3985;49.366;2.738;2023-04-03T06:51:41;19.25;;;19.25;;
7879;SDS011;3985;49.366;2.738;2023-04-03T06:54:08;25.50;;;25.50;;
7879;SDS011;3985;49.366;2.738;2023-04-03T06:56:35;22.50;;;20.50;;
7879;SDS011;3985;49.366;2.738;2023-04-03T06:59:02;25.75;;;23.00;;
7879;SDS011;3985;49.366;2.738;2023-04-03T07:01:31;24.50;;;21.00;;
7879;SDS011;3985;49.366;2.738;2023-04-03T07:04:00;24.50;;;18.75;;
7879;SDS011;3985;49.366;2.738;2023-04-03T07:06:28;25.50;;;25.50;;
7879;SDS011;3985;49.366;2.738;2023-04-03T07:08:56;25.25;;;25.25;;
7879;SDS011;3985;49.366;2.738;2023-04-03T07:11:23;26.75;;;23.75;;
7879;SDS011;3985;49.366;2.738;2023-04-03T07:13:51;20.50;;;20.50;;
7879;SDS011;3985;49.366;2.738;2023-04-03T07:16:18;26.50;;;25.25;;
7879;SDS011;3985;49.366;2.738;2023-04-03T07:18:48;29.75;;;27.00;;
7879;SDS011;3985;49.366;2.738;2023-04-03T07:21:15;29.00;;;24.00;;
7879;SDS011;3985;49.366;2.738;2023-04-03T07:23:43;32.25;;;24.75;;
7879;SDS011;3985;49.366;2.738;2023-04-03T07:26:10;20.25;;;20.25;;
7879;SDS011;3985;49.366;2.738;2023-04-03T07:28:37;27.50;;;23.50;;
7879;SDS011;3985;49.366;2.738;2023-04-03T07:31:06;20.00;;;20.00;;
7879;SDS011;3985;49.366;2.738;2023-04-03T07:33:38;20.75;;;20.75;;
7879;SDS011;3985;49.366;2.738;2023-04-03T07:36:07;20.75;;;17.25;;
7879;SDS011;3985;49.366;2.738;2023-04-03T07:38:36;19.00;;;15.25;;
7879;SDS011;3985;49.366;2.738;2023-04-03T07:41:04;21.25;;;20.50;;
7879;SDS011;3985;49.366;2.738;2023-04-03T07:43:31;21.50;;;18.75;;
7879;SDS011;3985;49.366;2.738;2023-04-03T07:45:59;15.25;;;15.25;;
7879;SDS011;3985;49.366;2.738;2023-04-03T07:48:26;13.00;;;11.75;;
7879;SDS011;3985;49.366;2.738;2023-04-03T07:50:53;12.00;;;12.00;;
7879;SDS011;3985;49.366;2.738;2023-04-03T07:53:26;15.75;;;14.00;;
7879;SDS011;3985;49.366;2.738;2023-04-03T07:55:53;10.75;;;8.50;;
7879;SDS011;3985;49.366;2.738;2023-04-03T07:58:21;13.25;;;13.00;;
7879;SDS011;3985;49.366;2.738;2023-04-03T08:00:49;9.25;;;9.25;;
7879;SDS011;3985;49.366;2.738;2023-04-03T08:03:17;11.00;;;8.50;;
7879;SDS011;3985;49.366;2.738;2023-04-03T08:05:44;9.75;;;9.75;;
7879;SDS011;3985;49.366;2.738;2023-04-03T08:08:13;11.00;;;8.00;;
7879;SDS011;3985;49.366;2.738;2023-04-03T08:10:42;7.50;;;7.50;;
7879;SDS011;3985;49.366;2.738;2023-04-03T08:13:10;9.75;;;8.25;;
7879;SDS011;3985;49.366;2.738;2023-04-03T08:15:37;8.25;;;7.00;;
7879;SDS011;3985;49.366;2.738;2023-04-03T08:18:04;7.75;;;7.75;;
7879;SDS011;3985;49.366;2.738;2023-04-03T08:20:31;6.50;;;6.50;;
7879;SDS011;3985;49.366;2.738;2023-04-03T08:22:59;4.00;;;4.00;;
7879;SDS011;3985;49.366;2.738;2023-04-03T08:25:26;7.00;;;4.50;;
7879;SDS011;3985;49.366;2.738;2023-04-03T08:27:55;4.50;;;3.75;;
7879;SDS011;3985;49.366;2.738;2023-04-03T08:30:23;3.75;;;3.75;;
7879;SDS011;3985;49.366;2.738;2023-04-03T08:32:50;8.00;;;6.75;;
7879;SDS011;3985;49.366;2.738;2023-04-03T08:35:17;6.75;;;6.75;;
7879;SDS011;3985;49.366;2.738;2023-04-03T08:37:45;7.00;;;6.00;;
7879;SDS011;3985;49.366;2.738;2023-04-03T08:40:13;2.25;;;2.25;;
7879;SDS011;3985;49.366;2.738;2023-04-03T08:42:44;3.75;;;3.75;;
7879;SDS011;3985;49.366;2.738;2023-04-03T08:45:19;7.50;;;4.00;;
7879;SDS011;3985;49.366;2.738;2023-04-03T08:47:52;6.25;;;6.25;;
7879;SDS011;3985;49.366;2.738;2023-04-03T08:50:24;3.75;;;3.75;;
7879;SDS011;3985;49.366;2.738;2023-04-03T08:52:57;7.00;;;4.00;;
7879;SDS011;3985;49.366;2.738;2023-04-03T08:55:25;4.00;;;3.00;;
7879;SDS011;3985;49.366;2.738;2023-04-03T08:57:57;3.00;;;3.00;;
7879;SDS011;3985;49.366;2.738;2023-04-03T09:00:28;3.00;;;3.00;;
7879;SDS011;3985;49.366;2.738;2023-04-03T09:02:58;3.75;;;3.75;;
7879;SDS011;3985;49.366;2.738;2023-04-03T09:05:29;2.75;;;2.75;;
7879;SDS011;3985;49.366;2.738;2023-04-03T09:08:04;3.25;;;3.25;;
7879;SDS011;3985;49.366;2.738;2023-04-03T09:10:38;3.00;;;3.00;;
7879;SDS011;3985;49.366;2.738;2023-04-03T09:13:08;2.00;;;2.00;;
7879;SDS011;3985;49.366;2.738;2023-04-03T09:15:41;3.50;;;3.50;;
7879;SDS011;3985;49.366;2.738;2023-04-03T09:18:12;2.25;;;2.25;;
7879;SDS011;3985;49.366;2.738;2023-04-03T09:20:43;3.00;;;3.00;;
7879;SDS011;3985;49.366;2.738;2023-04-03T09:23:18;4.00;;;4.00;;
7879;SDS011;3985;49.366;2.738;2023-04-03T09:25:48;3.00;;;3.00;;
7879;SDS011;3985;49.366;2.738;2023-04-03T09:28:18;4.00;;;4.00;;
7879;SDS011;3985;49.366;2.738;2023-04-03T09:30:47;4.00;;;4.00;;
7879;SDS011;3985;49.366;2.738;2023-04-03T09:33:14;3.00;;;3.00;;
7879;SDS011;3985;49.366;2.738;2023-04-03T09:35:42;3.75;;;3.75;;
7879;SDS011;3985;49.366;2.738;2023-04-03T09:38:17;3.00;;;3.00;;
7879;SDS011;3985;49.366;2.738;2023-04-03T09:40:47;2.75;;;2.50;;
7879;SDS011;3985;49.366;2.738;2023-04-03T09:43:20;4.00;;;4.00;;
7879;SDS011;3985;49.366;2.738;2023-04-03T09:45:53;5.25;;;5.25;;
7879;SDS011;3985;49.366;2.738;2023-04-03T09:48:22;2.00;;;2.00;;
7879;SDS011;3985;49.366;2.738;2023-04-03T09:51:01;3.00;;;3.00;;
7879;SDS011;3985;49.366;2.738;2023-04-03T09:53:29;1.00;;;1.00;;
7879;SDS011;3985;49.366;2.738;2023-04-03T09:55:59;4.50;;;4.50;;
7879;SDS011;3985;49.366;2.738;2023-04-03T09:58:28;4.00;;;4.00;;
7879;SDS011;3985;49.366;2.738;2023-04-03T10:01:00;5.00;;;5.00;;
7879;SDS011;3985;49.366;2.738;2023-04-03T10:03:30;4.75;;;3.00;;
7879;SDS011;3985;49.366;2.738;2023-04-03T10:05:59;4.75;;;4.75;;
7879;SDS011;3985;49.366;2.738;2023-04-03T10:08:28;3.50;;;3.50;;
7879;SDS011;3985;49.366;2.738;2023-04-03T10:11:06;4.75;;;4.75;;
7879;SDS011;3985;49.366;2.738;2023-04-03T10:13:51;4.00;;;4.00;;
7879;SDS011;3985;49.366;2.738;2023-04-03T10:16:23;4.00;;;4.00;;
7879;SDS011;3985;49.366;2.738;2023-04-03T10:18:56;7.25;;;4.00;;
7879;SDS011;3985;49.366;2.738;2023-04-03T10:21:34;5.50;;;5.50;;
7879;SDS011;3985;49.366;2.738;2023-04-03T10:24:07;3.75;;;3.75;;
7879;SDS011;3985;49.366;2.738;2023-04-03T10:26:39;4.00;;;4.00;;
7879;SDS011;3985;49.366;2.738;2023-04-03T10:29:15;3.25;;;3.25;;
7879;SDS011;3985;49.366;2.738;2023-04-03T10:31:55;3.75;;;2.00;;
7879;SDS011;3985;49.366;2.738;2023-04-03T10:34:28;4.00;;;4.00;;
7879;SDS011;3985;49.366;2.738;2023-04-03T10:37:00;3.75;;;3.75;;
7879;SDS011;3985;49.366;2.738;2023-04-03T10:39:33;2.00;;;2.00;;
7879;SDS011;3985;49.366;2.738;2023-04-03T10:42:03;4.00;;;4.00;;
7879;SDS011;3985;49.366;2.738;2023-04-03T10:44:36;2.50;;;2.50;;
7879;SDS011;3985;49.366;2.738;2023-04-03T10:47:12;3.00;;;3.00;;
7879;SDS011;3985;49.366;2.738;2023-04-03T10:49:47;3.50;;;3.50;;
7879;SDS011;3985;49.366;2.738;2023-04-03T10:52:19;4.00;;;4.00;;
7879;SDS011;3985;49.366;2.738;2023-04-03T10:54:51;2.00;;;2.00;;
7879;SDS011;3985;49.366;2.738;2023-04-03T10:57:25;4.75;;;3.00;;
7879;SDS011;3985;49.366;2.738;2023-04-03T10:59:53;3.00;;;3.00;;
7879;SDS011;3985;49.366;2.738;2023-04-03T11:02:24;3.00;;;3.00;;
7879;SDS011;3985;49.366;2.738;2023-04-03T11:04:53;4.50;;;3.25;;
7879;SDS011;3985;49.366;2.738;2023-04-03T11:07:24;5.75;;;4.00;;
7879;SDS011;3985;49.366;2.738;2023-04-03T11:09:54;4.50;;;4.00;;
7879;SDS011;3985;49.366;2.738;2023-04-03T11:12:24;3.50;;;2.00;;
7879;SDS011;3985;49.366;2.738;2023-04-03T11:14:55;3.00;;;3.00;;
7879;SDS011;3985;49.366;2.738;2023-04-03T11:17:26;2.00;;;2.00;;
7879;SDS011;3985;49.366;2.738;2023-04-03T11:19:59;2.00;;;2.00;;
7879;SDS011;3985;49.366;2.738;2023-04-03T11:22:29;2.33;;;2.33;;
7879;SDS011;3985;49.366;2.738;2023-04-03T11:25:02;3.67;;;3.67;;
7879;SDS011;3985;49.366;2.738;2023-04-03T11:27:33;3.00;;;3.00;;
7879;SDS011;3985;49.366;2.738;2023-04-03T11:30:06;2.00;;;2.00;;
7879;SDS011;3985;49.366;2.738;2023-04-03T11:32:45;3.00;;;3.00;;
7879;SDS011;3985;49.366;2.738;2023-04-03T11:35:25;2.00;;;2.00;;
7879;SDS011;3985;49.366;2.738;2023-04-03T11:37:54;3.33;;;2.00;;
7879;SDS011;3985;49.366;2.738;2023-04-03T11:40:22;2.33;;;2.33;;
7879;SDS011;3985;49.366;2.738;2023-04-03T11:42:52;2.67;;;2.67;;
7879;SDS011;3985;49.366;2.738;2023-04-03T11:45:29;2.33;;;2.33;;
7879;SDS011;3985;49.366;2.738;2023-04-03T11:48:02;2.00;;;2.00;;
7879;SDS011;3985;49.366;2.738;2023-04-03T11:50:41;2.00;;;2.00;;
7879;SDS011;3985;49.366;2.738;2023-04-03T11:53:26;3.00;;;3.00;;
7879;SDS011;3985;49.366;2.738;2023-04-03T11:55:58;2.50;;;2.50;;
7879;SDS011;3985;49.366;2.738;2023-04-03T11:58:30;4.75;;;2.50;;
7879;SDS011;3985;49.366;2.738;2023-04-03T12:01:00;3.00;;;3.00;;
7879;SDS011;3985;49.366;2.738;2023-04-03T12:03:56;3.00;;;3.00;;
7879;SDS011;3985;49.366;2.738;2023-04-03T12:09:32;2.75;;;2.75;;
7879;SDS011;3985;49.366;2.738;2023-04-03T12:15:22;3.50;;;2.00;;
7879;SDS011;3985;49.366;2.738;2023-04-03T12:17:52;4.75;;;3.75;;
7879;SDS011;3985;49.366;2.738;2023-04-03T12:23:26;2.00;;;2.00;;
7879;SDS011;3985;49.366;2.738;2023-04-03T12:26:00;1.00;;;1.00;;
7879;SDS011;3985;49.366;2.738;2023-04-03T12:28:39;3.00;;;3.00;;
7879;SDS011;3985;49.366;2.738;2023-04-03T12:31:06;2.25;;;2.25;;
7879;SDS011;3985;49.366;2.738;2023-04-03T12:33:38;2.25;;;2.25;;
7879;SDS011;3985;49.366;2.738;2023-04-03T12:36:37;2.25;;;2.25;;
7879;SDS011;3985;49.366;2.738;2023-04-03T12:39:30;2.50;;;1.75;;
7879;SDS011;3985;49.366;2.738;2023-04-03T12:42:11;2.50;;;2.00;;
7879;SDS011;3985;49.366;2.738;2023-04-03T12:44:46;2.50;;;2.50;;
7879;SDS011;3985;49.366;2.738;2023-04-03T12:47:22;1.00;;;1.00;;
7879;SDS011;3985;49.366;2.738;2023-04-03T12:49:52;1.00;;;1.00;;
7879;SDS011;3985;49.366;2.738;2023-04-03T12:52:22;3.00;;;1.50;;
7879;SDS011;3985;49.366;2.738;2023-04-03T12:54:56;2.50;;;2.50;;
7879;SDS011;3985;49.366;2.738;2023-04-03T12:57:25;0.00;;;0.00;;
7879;SDS011;3985;49.366;2.738;2023-04-03T12:59:53;2.00;;;2.00;;
7879;SDS011;3985;49.366;2.738;2023-04-03T13:02:22;2.00;;;1.75;;
7879;SDS011;3985;49.366;2.738;2023-04-03T13:04:51;2.00;;;2.00;;
7879;SDS011;3985;49.366;2.738;2023-04-03T13:07:20;1.00;;;1.00;;
7879;SDS011;3985;49.366;2.738;2023-04-03T13:09:56;3.25;;;2.00;;
7879;SDS011;3985;49.366;2.738;2023-04-03T13:12:25;1.75;;;1.75;;
7879;SDS011;3985;49.366;2.738;2023-04-03T13:14:53;2.00;;;2.00;;
7879;SDS011;3985;49.366;2.738;2023-04-03T13:17:22;1.75;;;1.75;;
7879;SDS011;3985;49.366;2.738;2023-04-03T13:19:50;2.00;;;2.00;;
7879;SDS011;3985;49.366;2.738;2023-04-03T13:22:28;1.00;;;0.00;;
7879;SDS011;3985;49.366;2.738;2023-04-03T13:24:58;2.25;;;2.25;;
7879;SDS011;3985;49.366;2.738;2023-04-03T13:27:27;7.75;;;7.75;;
7879;SDS011;3985;49.366;2.738;2023-04-03T13:29:57;1.25;;;1.25;;
7879;SDS011;3985;49.366;2.738;2023-04-03T13:32:26;2.25;;;2.25;;
7879;SDS011;3985;49.366;2.738;2023-04-03T13:34:54;2.00;;;2.00;;
7879;SDS011;3985;49.366;2.738;2023-04-03T13:37:23;2.25;;;2.25;;
7879;SDS011;3985;49.366;2.738;2023-04-03T13:40:01;2.00;;;2.00;;
7879;SDS011;3985;49.366;2.738;2023-04-03T13:42:36;2.00;;;2.00;;
7879;SDS011;3985;49.366;2.738;2023-04-03T13:45:09;1.00;;;1.00;;
7879;SDS011;3985;49.366;2.738;2023-04-03T13:47:45;1.00;;;1.00;;
7879;SDS011;3985;49.366;2.738;2023-04-03T13:50:14;3.00;;;3.00;;
7879;SDS011;3985;49.366;2.738;2023-04-03T13:52:44;2.25;;;2.25;;
7879;SDS011;3985;49.366;2.738;2023-04-03T13:55:19;1.00;;;1.00;;
7879;SDS011;3985;49.366;2.738;2023-04-03T13:57:49;2.00;;;2.00;;
7879;SDS011;3985;49.366;2.738;2023-04-03T14:00:28;3.00;;;3.00;;
7879;SDS011;3985;49.366;2.738;2023-04-03T14:02:59;2.00;;;2.00;;
7879;SDS011;3985;49.366;2.738;2023-04-03T14:05:26;2.50;;;2.50;;
7879;SDS011;3985;49.366;2.738;2023-04-03T14:07:54;2.00;;;2.00;;
7879;SDS011;3985;49.366;2.738;2023-04-03T14:10:23;2.50;;;2.50;;
7879;SDS011;3985;49.366;2.738;2023-04-03T14:12:50;2.25;;;2.25;;
7879;SDS011;3985;49.366;2.738;2023-04-03T14:15:18;3.25;;;3.25;;
7879;SDS011;3985;49.366;2.738;2023-04-03T14:17:49;1.50;;;1.50;;
7879;SDS011;3985;49.366;2.738;2023-04-03T14:20:18;3.75;;;3.75;;
7879;SDS011;3985;49.366;2.738;2023-04-03T14:22:48;7.00;;;7.00;;
7879;SDS011;3985;49.366;2.738;2023-04-03T14:25:16;3.00;;;3.00;;
7879;SDS011;3985;49.366;2.738;2023-04-03T14:27:46;3.00;;;3.00;;
7879;SDS011;3985;49.366;2.738;2023-04-03T14:30:15;3.00;;;3.00;;
7879;SDS011;3985;49.366;2.738;2023-04-03T14:32:44;3.25;;;2.75;;
7879;SDS011;3985;49.366;2.738;2023-04-03T14:35:12;2.75;;;2.75;;
7879;SDS011;3985;49.366;2.738;2023-04-03T14:37:39;2.00;;;2.00;;
7879;SDS011;3985;49.366;2.738;2023-04-03T14:40:07;2.75;;;2.75;;
7879;SDS011;3985;49.366;2.738;2023-04-03T14:42:37;3.00;;;3.00;;
7879;SDS011;3985;49.366;2.738;2023-04-03T14:45:07;2.00;;;2.00;;
7879;SDS011;3985;49.366;2.738;2023-04-03T14:47:36;1.00;;;1.00;;
7879;SDS011;3985;49.366;2.738;2023-04-03T14:50:07;2.00;;;2.00;;
7879;SDS011;3985;49.366;2.738;2023-04-03T14:52:38;2.00;;;2.00;;
7879;SDS011;3985;49.366;2.738;2023-04-03T14:55:06;2.25;;;2.25;;
7879;SDS011;3985;49.366;2.738;2023-04-03T14:57:34;2.50;;;2.50;;
7879;SDS011;3985;49.366;2.738;2023-04-03T15:00:02;2.00;;;2.00;;
7879;SDS011;3985;49.366;2.738;2023-04-03T15:02:32;1.50;;;1.50;;
7879;SDS011;3985;49.366;2.738;2023-04-03T15:05:00;2.00;;;2.00;;
7879;SDS011;3985;49.366;2.738;2023-04-03T15:07:31;2.00;;;2.00;;
7879;SDS011;3985;49.366;2.738;2023-04-03T15:10:00;3.25;;;2.75;;
7879;SDS011;3985;49.366;2.738;2023-04-03T15:12:29;2.25;;;2.25;;
7879;SDS011;3985;49.366;2.738;2023-04-03T15:14:56;2.00;;;2.00;;
7879;SDS011;3985;49.366;2.738;2023-04-03T15:17:23;5.00;;;3.00;;
7879;SDS011;3985;49.366;2.738;2023-04-03T15:19:52;3.00;;;3.00;;
7879;SDS011;3985;49.366;2.738;2023-04-03T15:22:19;2.25;;;2.25;;
7879;SDS011;3985;49.366;2.738;2023-04-03T15:24:47;3.50;;;3.00;;
7879;SDS011;3985;49.366;2.738;2023-04-03T15:27:14;3.50;;;3.00;;
7879;SDS011;3985;49.366;2.738;2023-04-03T15:29:42;2.50;;;2.50;;